Time,TemperatureF,DewpointF,PressureIn,WindDirection,WindDirectionDegrees,WindSpeedMPH,WindSpeedGustMPH,Humidity,HourlyPrecipIn,Conditions,Clouds,dailyrainin,SoftwareType,DateUTC
2013-08-23 11:54:00,74.0,47.0,30.29,SSW,205,9.0,16.0,38,0.00,,,0.03,,2013-08-23 17:54:00,
2013-08-23 12:22:00,77.0,47.0,30.29,WNW,290,5.0,19.0,35,0.00,,,0.03,,2013-08-23 18:22:00,
2013-08-23 12:52:00,76.0,47.0,30.28,WNW,288,7.0,18.0,36,0.00,,,0.02,,2013-08-23 18:52:00,
2013-08-23 13:22:00,77.0,47.0,30.26,SSW,193,5.0,12.0,35,0.00,,,0.02,,2013-08-23 19:22:00,
2013-08-23 13:52:00,75.0,48.0,30.27,SW,229,11.0,14.0,38,0.00,,,0.02,,2013-08-23 19:52:00,
2013-08-23 14:22:00,77.0,46.0,30.25,South,170,4.0,11.0,34,0.00,,,0.02,,2013-08-23 20:22:00,
2013-08-23 14:52:00,78.0,46.0,30.23,South,178,4.0,13.0,32,0.00,,,0.02,,2013-08-23 20:52:00,
2013-08-23 15:22:00,78.0,47.0,30.22,South,186,2.0,6.0,33,0.00,,,0.02,,2013-08-23 21:22:00,
2013-08-23 15:54:00,78.0,47.0,30.22,NW,308,0.0,10.0,34,0.00,,,0.02,,2013-08-23 21:54:00,
2013-08-23 16:24:00,74.0,45.0,30.21,West,269,15.0,22.0,36,0.00,,,0.02,,2013-08-23 22:24:00,
2013-08-23 16:53:00,68.0,50.0,30.21,WNW,300,4.0,15.0,53,0.01,,,0.03,,2013-08-23 22:53:00,
2013-08-23 17:22:00,72.0,50.0,30.23,North,9,10.0,15.0,46,0.01,,,0.03,,2013-08-23 23:22:00,
2013-08-23 17:54:00,71.0,51.0,30.22,NNE,19,8.0,12.0,49,0.00,,,0.03,,2013-08-23 23:54:00,
2013-08-23 18:21:00,71.0,50.0,30.22,NE,48,3.0,9.0,47,0.00,,,0.03,,2013-08-24 00:21:00,
2013-08-23 18:53:00,70.0,50.0,30.24,East,88,2.0,9.0,50,0.00,,,0.01,,2013-08-24 00:53:00,
2013-08-23 19:22:00,64.0,46.0,30.23,SW,227,2.0,10.0,52,0.00,,,0.01,,2013-08-24 01:22:00,
2013-08-23 19:53:00,60.0,49.0,30.31,WSW,249,19.0,32.0,67,0.01,,,0.02,,2013-08-24 01:53:00,
2013-08-23 20:22:00,58.0,49.0,30.33,West,271,15.0,21.0,72,0.02,,,0.03,,2013-08-24 02:22:00,
2013-08-23 20:52:00,56.0,49.0,30.35,WSW,252,14.0,19.0,76,0.05,,,0.07,,2013-08-24 02:52:00,
2013-08-23 21:22:00,55.0,48.0,30.35,West,260,8.0,15.0,78,0.11,,,0.14,,2013-08-24 03:22:00,
2013-08-23 21:55:00,55.0,48.0,30.35,WNW,303,4.0,18.0,76,0.12,,,0.19,,2013-08-24 03:55:00,
2013-08-23 22:24:00,54.0,48.0,30.30,South,183,9.0,11.0,81,0.08,,,0.21,,2013-08-24 04:24:00,
2013-08-23 22:53:00,54.0,49.0,30.33,WSW,242,9.0,14.0,82,0.03,,,0.21,,2013-08-24 04:53:00,
2013-08-23 23:23:00,53.0,48.0,30.32,SSW,210,8.0,14.0,82,0.00,,,0.21,,2013-08-24 05:23:00,
2013-08-23 23:53:00,53.0,48.0,30.30,SW,230,9.0,14.0,82,0.00,,,0.21,,2013-08-24 05:53:00,